Time;durP1;ratioP1;P1;durP2;ratioP2;P2;SDS_P1;SDS_P2;PMS_P1;PMS_P2;Temp;Humidity;BMP_temperature;BMP_pressure;BME280_temperature;BME280_humidity;BME280_pressure;Samples;Min_cycle;Max_cycle;Signal;HPM_P1;HPM_P2
2022/04/13 00:02:08;;;;;;;;;;;18.70;57.00;;;;;;5034512;28;1350;-69
2022/04/13 00:04:34;;;;;;;;;;;18.70;57.00;;;;;;5034714;28;1289;-69
2022/04/13 00:06:59;;;;;;;;;;;18.70;57.00;;;;;;5016596;28;1293;-69
2022/04/13 00:09:24;;;;;;;;;;;18.70;57.10;;;;;;5034975;28;1909;-69
2022/04/13 00:11:52;;;;;;;;;;;18.70;57.10;;;;;;5034410;28;1330;-68
2022/04/13 00:14:17;;;;;;;;;;;18.70;57.10;;;;;;5017491;28;1307;-68
2022/04/13 00:16:43;;;;;;;;;;;18.70;57.20;;;;;;5033592;28;1387;-68
2022/04/13 00:19:09;;;;;;;;;;;18.70;57.10;;;;;;5000975;28;1322;-68
2022/04/13 00:21:35;;;;;;;;;;;18.70;57.20;;;;;;5034272;28;1332;-69
2022/04/13 00:24:00;;;;;;;;;;;18.70;57.20;;;;;;5034356;28;1062;-69
2022/04/13 00:26:26;;;;;;;;;;;18.70;57.20;;;;;;5033746;28;1330;-69
2022/04/13 00:28:51;;;;;;;;;;;18.60;57.80;;;;;;5034320;28;1914;-69
2022/04/13 00:31:16;;;;;;;;;;;18.70;57.30;;;;;;5033924;28;1359;-68
2022/04/13 00:33:42;;;;;;;;;;;18.60;57.30;;;;;;5016436;28;1338;-69
2022/04/13 00:36:07;;;;;;;;;;;18.60;57.30;;;;;;5033584;28;1386;-69
2022/04/13 00:38:33;;;;;;;;;;;18.60;57.30;;;;;;5034214;28;1244;-69
2022/04/13 00:40:58;;;;;;;;;;;18.60;57.30;;;;;;5016159;28;1376;-68
2022/04/13 00:43:24;;;;;;;;;;;18.60;57.40;;;;;;5016442;28;1229;-68
2022/04/13 00:45:50;;;;;;;;;;;18.60;57.40;;;;;;5034018;28;1326;-69
2022/04/13 00:48:32;;;;;;;;;;;18.60;57.40;;;;;;5016228;28;1395;-69
2022/04/13 00:50:57;;;;;;;;;;;18.60;57.40;;;;;;5016179;28;1152;-69
2022/04/13 00:53:23;;;;;;;;;;;18.60;57.40;;;;;;5033566;28;1321;-69
2022/04/13 00:55:49;;;;;;;;;;;18.60;57.50;;;;;;5014956;28;1943;-69
2022/04/13 00:58:14;;;;;;;;;;;18.60;57.50;;;;;;5024766;28;1563;-69
2022/04/13 01:00:48;;;;;;;;;;;18.60;57.50;;;;;;5015811;28;1217;-69
2022/04/13 01:03:17;;;;;;;;;;;18.60;57.50;;;;;;5016726;28;1529;-69
2022/04/13 01:05:43;;;;;;;;;;;18.60;57.50;;;;;;5058337;22;3515;-67
2022/04/13 01:08:08;;;;;;;;;;;18.60;57.60;;;;;;5025361;28;1168;-67
2022/04/13 01:10:34;;;;;;;;;;;18.60;57.60;;;;;;5035163;28;1995;-67
2022/04/13 01:12:59;;;;;;;;;;;18.60;57.60;;;;;;5018383;28;1255;-67
2022/04/13 01:15:25;;;;;;;;;;;18.60;57.60;;;;;;5035087;28;1391;-67
2022/04/13 01:17:50;;;;;;;;;;;18.60;57.60;;;;;;5035104;28;1338;-67
2022/04/13 01:20:17;;;;;;;;;;;18.50;57.60;;;;;;5053122;28;1263;-67
2022/04/13 01:22:44;;;;;;;;;;;18.50;57.60;;;;;;5053046;28;1276;-67
2022/04/13 01:25:10;;;;;;;;;;;18.50;57.60;;;;;;5052978;28;1303;-67
2022/04/13 01:27:35;;;;;;;;;;;18.50;57.70;;;;;;5052382;28;1335;-67
2022/04/13 01:30:01;;;;;;;;;;;18.50;57.70;;;;;;5052792;28;1973;-67
2022/04/13 01:32:26;;;;;;;;;;;18.50;57.70;;;;;;5034935;28;1340;-67
2022/04/13 01:34:52;;;;;;;;;;;18.50;57.70;;;;;;5052789;28;1272;-67
2022/04/13 01:37:18;;;;;;;;;;;18.50;57.70;;;;;;5034437;28;1517;-67
2022/04/13 01:39:43;;;;;;;;;;;18.50;57.70;;;;;;5034907;28;1345;-67
2022/04/13 01:42:09;;;;;;;;;;;18.50;57.70;;;;;;5034432;28;1062;-67
2022/04/13 01:44:34;;;;;;;;;;;18.50;57.70;;;;;;5052503;28;1325;-67
2022/04/13 01:47:00;;;;;;;;;;;18.50;57.70;;;;;;5051967;28;1310;-67
2022/04/13 01:49:25;;;;;;;;;;;18.50;57.80;;;;;;5052785;28;1898;-67
2022/04/13 01:51:50;;;;;;;;;;;18.50;57.80;;;;;;5052204;28;1343;-67
2022/04/13 01:54:16;;;;;;;;;;;18.50;57.80;;;;;;5052503;28;1068;-67
2022/04/13 01:56:42;;;;;;;;;;;18.50;57.80;;;;;;5051918;28;1318;-67
2022/04/13 01:59:08;;;;;;;;;;;18.50;57.80;;;;;;5052701;28;1249;-67
2022/04/13 02:01:35;;;;;;;;;;;18.50;57.80;;;;;;5052573;28;1418;-67
2022/04/13 02:04:01;;;;;;;;;;;18.50;57.80;;;;;;5035061;28;1283;-67
2022/04/13 02:06:26;;;;;;;;;;;18.50;57.80;;;;;;5051808;28;1298;-67
2022/04/13 02:08:52;;;;;;;;;;;18.50;57.80;;;;;;5058435;28;1910;-66
2022/04/13 02:11:17;;;;;;;;;;;18.50;57.80;;;;;;5038847;28;1226;-66
2022/04/13 02:13:43;;;;;;;;;;;18.50;57.80;;;;;;5057756;28;1342;-65
2022/04/13 02:16:08;;;;;;;;;;;18.50;57.80;;;;;;5060883;28;1381;-66
2022/04/13 02:18:34;;;;;;;;;;;18.50;57.90;;;;;;5061707;28;1410;-66
2022/04/13 02:20:59;;;;;;;;;;;18.50;57.90;;;;;;5060573;28;1195;-66
2022/04/13 02:23:24;;;;;;;;;;;18.50;57.90;;;;;;5059941;28;1200;-66
2022/04/13 02:25:50;;;;;;;;;;;18.50;57.90;;;;;;5061414;28;1322;-67
2022/04/13 02:28:15;;;;;;;;;;;18.50;57.90;;;;;;5061627;28;1156;-66
2022/04/13 02:30:41;;;;;;;;;;;18.50;57.90;;;;;;5060080;28;1910;-66
2022/04/13 02:33:06;;;;;;;;;;;18.40;57.90;;;;;;5056696;28;1953;-67
2022/04/13 02:35:32;;;;;;;;;;;18.50;57.90;;;;;;5052027;28;1381;-67
2022/04/13 02:37:57;;;;;;;;;;;18.40;57.90;;;;;;5052098;28;1178;-67
2022/04/13 02:40:23;;;;;;;;;;;18.40;57.90;;;;;;5052222;28;1201;-67
2022/04/13 02:42:48;;;;;;;;;;;18.40;57.90;;;;;;5052347;28;1270;-67
2022/04/13 02:45:13;;;;;;;;;;;18.40;57.90;;;;;;5052287;28;1297;-67
2022/04/13 02:47:39;;;;;;;;;;;18.40;57.90;;;;;;5050613;28;1333;-67
2022/04/13 02:50:06;;;;;;;;;;;18.40;58.00;;;;;;5051028;28;1894;-67
2022/04/13 02:52:31;;;;;;;;;;;18.40;58.00;;;;;;5052130;28;1276;-67
2022/04/13 02:54:57;;;;;;;;;;;18.40;58.00;;;;;;5051998;28;1366;-66
2022/04/13 02:57:22;;;;;;;;;;;18.40;58.00;;;;;;5051694;28;1327;-67
2022/04/13 02:59:49;;;;;;;;;;;18.40;58.00;;;;;;5034250;28;1268;-67
2022/04/13 03:02:14;;;;;;;;;;;18.40;58.00;;;;;;5034261;28;1610;-67
2022/04/13 03:04:43;;;;;;;;;;;18.40;58.30;;;;;;5034185;28;1094;-68
2022/04/13 03:07:12;;;;;;;;;;;18.40;58.00;;;;;;5033828;28;1207;-68
2022/04/13 03:09:38;;;;;;;;;;;18.40;58.00;;;;;;5034312;28;1922;-68
2022/04/13 03:12:04;;;;;;;;;;;18.40;58.00;;;;;;5051941;28;1300;-68
2022/04/13 03:14:29;;;;;;;;;;;18.40;58.00;;;;;;5034142;28;1272;-68
2022/04/13 03:16:55;;;;;;;;;;;18.40;58.00;;;;;;5034578;28;1302;-68
2022/04/13 03:19:20;;;;;;;;;;;18.40;58.00;;;;;;5037536;28;1289;-68
2022/04/13 03:21:51;;;;;;;;;;;18.40;58.10;;;;;;5037467;28;1325;-68
2022/04/13 03:24:17;;;;;;;;;;;18.40;58.10;;;;;;5055323;28;1361;-68
2022/04/13 03:26:42;;;;;;;;;;;18.40;58.10;;;;;;5054967;28;1276;-67
2022/04/13 03:29:07;;;;;;;;;;;18.40;58.10;;;;;;5055062;28;1894;-68
2022/04/13 03:31:33;;;;;;;;;;;18.40;58.10;;;;;;5055247;28;1261;-68
2022/04/13 03:33:58;;;;;;;;;;;18.40;58.10;;;;;;5055243;28;1241;-68
2022/04/13 03:36:24;;;;;;;;;;;18.40;58.70;;;;;;5054804;28;1257;-68
2022/04/13 03:38:49;;;;;;;;;;;18.40;58.10;;;;;;5055048;28;1298;-68
2022/04/13 03:41:14;;;;;;;;;;;18.40;58.20;;;;;;5055003;28;1315;-68
2022/04/13 03:43:40;;;;;;;;;;;18.30;58.10;;;;;;5055106;28;1316;-68
2022/04/13 03:46:05;;;;;;;;;;;18.30;58.10;;;;;;5054903;28;1302;-68
2022/04/13 03:48:31;;;;;;;;;;;18.30;58.10;;;;;;5054937;28;1322;-67
2022/04/13 03:50:57;;;;;;;;;;;18.30;58.10;;;;;;5037058;28;1906;-67
2022/04/13 03:53:23;;;;;;;;;;;18.40;58.20;;;;;;5054537;28;1325;-67
2022/04/13 03:55:48;;;;;;;;;;;18.30;58.10;;;;;;5054883;28;1819;-67
2022/04/13 03:58:14;;;;;;;;;;;18.30;58.20;;;;;;5054892;28;1302;-67
2022/04/13 04:00:39;;;;;;;;;;;18.30;58.20;;;;;;5054829;28;1357;-67
2022/04/13 04:03:05;;;;;;;;;;;18.30;58.30;;;;;;5036665;28;1483;-66
2022/04/13 04:05:30;;;;;;;;;;;18.30;58.20;;;;;;5054175;28;1381;-66
2022/04/13 04:07:56;;;;;;;;;;;18.30;58.20;;;;;;5036436;28;1419;-67
2022/04/13 04:10:22;;;;;;;;;;;18.30;58.20;;;;;;5054513;28;1902;-68
2022/04/13 04:12:47;;;;;;;;;;;18.30;58.20;;;;;;5036589;28;1357;-67
2022/04/13 04:15:13;;;;;;;;;;;18.30;58.20;;;;;;5036969;28;1266;-68
2022/04/13 04:17:38;;;;;;;;;;;18.30;58.20;;;;;;5054328;28;1328;-68
2022/04/13 04:20:04;;;;;;;;;;;18.30;58.20;;;;;;5036699;28;1268;-68
2022/04/13 04:22:29;;;;;;;;;;;18.30;58.30;;;;;;5054375;28;1301;-67
2022/04/13 04:24:55;;;;;;;;;;;18.30;58.30;;;;;;5036526;28;1384;-67
2022/04/13 04:27:20;;;;;;;;;;;18.30;58.20;;;;;;5053631;28;1322;-67
2022/04/13 04:29:46;;;;;;;;;;;18.30;58.20;;;;;;5054252;28;1906;-67
2022/04/13 04:32:11;;;;;;;;;;;18.30;58.30;;;;;;5054215;28;1310;-67
2022/04/13 04:34:36;;;;;;;;;;;18.30;58.30;;;;;;5054295;28;1428;-67
2022/04/13 04:37:02;;;;;;;;;;;18.30;58.30;;;;;;5053733;28;1287;-67
2022/04/13 04:39:28;;;;;;;;;;;18.30;58.30;;;;;;5053947;28;1140;-67
2022/04/13 04:41:54;;;;;;;;;;;18.30;58.90;;;;;;5054038;28;1267;-67
2022/04/13 04:44:19;;;;;;;;;;;18.30;58.30;;;;;;5036329;28;1426;-68
2022/04/13 04:46:45;;;;;;;;;;;18.30;58.30;;;;;;5053888;28;1294;-67
2022/04/13 04:49:10;;;;;;;;;;;18.30;58.30;;;;;;5053945;28;1901;-67
2022/04/13 04:51:36;;;;;;;;;;;18.30;58.30;;;;;;5035941;28;1096;-68
2022/04/13 04:54:01;;;;;;;;;;;18.30;58.30;;;;;;5053675;28;1349;-67
2022/04/13 04:56:27;;;;;;;;;;;18.30;58.30;;;;;;5053492;28;1306;-67
2022/04/13 04:58:52;;;;;;;;;;;18.30;58.40;;;;;;5054183;28;1005;-68
2022/04/13 05:01:18;;;;;;;;;;;18.30;58.30;;;;;;5053736;28;1035;-67
2022/04/13 05:03:48;;;;;;;;;;;18.30;58.30;;;;;;5053841;28;970;-67
2022/04/13 05:06:15;;;;;;;;;;;18.30;58.40;;;;;;5053295;28;1239;-67
2022/04/13 05:08:41;;;;;;;;;;;18.30;58.40;;;;;;5035983;28;1901;-67
2022/04/13 05:11:06;;;;;;;;;;;18.30;58.30;;;;;;5053693;28;883;-67
2022/04/13 05:13:32;;;;;;;;;;;18.30;58.30;;;;;;5053621;28;910;-67
2022/04/13 05:15:57;;;;;;;;;;;18.30;58.20;;;;;;5053260;28;1209;-65
2022/04/13 05:18:23;;;;;;;;;;;18.30;58.80;;;;;;5053511;28;954;-65
2022/04/13 05:20:48;;;;;;;;;;;18.40;58.20;;;;;;5048783;28;2172;-67
2022/04/13 05:23:16;;;;;;;;;;;18.40;58.10;;;;;;5052014;28;1039;-69
2022/04/13 05:25:41;;;;;;;;;;;18.40;58.00;;;;;;5053068;28;1583;-68
2022/04/13 05:28:07;;;;;;;;;;;18.50;58.00;;;;;;5053280;28;1234;-68
2022/04/13 05:30:32;;;;;;;;;;;18.50;57.90;;;;;;5053250;28;1945;-68
2022/04/13 05:32:58;;;;;;;;;;;18.50;57.80;;;;;;5053222;28;907;-68
2022/04/13 05:35:27;;;;;;;;;;;18.50;57.70;;;;;;5053027;28;1188;-70
2022/04/13 05:37:52;;;;;;;;;;;18.50;57.70;;;;;;5048374;28;1119;-71
2022/04/13 05:40:18;;;;;;;;;;;18.60;57.60;;;;;;5052377;28;906;-72
2022/04/13 05:42:43;;;;;;;;;;;18.60;57.60;;;;;;5052037;28;951;-69
2022/04/13 05:45:09;;;;;;;;;;;18.60;57.50;;;;;;5051902;28;1300;-70
2022/04/13 05:47:34;;;;;;;;;;;18.60;57.50;;;;;;5051812;28;887;-70
2022/04/13 05:50:00;;;;;;;;;;;18.60;57.40;;;;;;5052927;28;1894;-69
2022/04/13 05:52:26;;;;;;;;;;;18.70;57.40;;;;;;5053184;28;1080;-71
2022/04/13 05:54:51;;;;;;;;;;;18.70;57.40;;;;;;5053179;28;903;-70
2022/04/13 05:57:17;;;;;;;;;;;18.70;57.40;;;;;;5051473;28;1251;-70
2022/04/13 05:59:42;;;;;;;;;;;18.70;57.30;;;;;;5068463;28;905;-71
2022/04/13 06:02:07;;;;;;;;;;;18.70;57.30;;;;;;5052937;28;875;-70
2022/04/13 06:04:33;;;;;;;;;;;18.70;57.30;;;;;;5051535;28;962;-70
2022/04/13 06:06:59;;;;;;;;;;;18.70;57.20;;;;;;5052397;28;1277;-67
2022/04/13 06:09:25;;;;;;;;;;;18.70;57.20;;;;;;5052719;28;1898;-68
2022/04/13 06:11:50;;;;;;;;;;;18.80;57.20;;;;;;5051533;28;1017;-67
2022/04/13 06:14:16;;;;;;;;;;;18.80;57.20;;;;;;5053108;28;1022;-67
2022/04/13 06:16:41;;;;;;;;;;;18.80;57.20;;;;;;5052388;28;1303;-67
2022/04/13 06:19:06;;;;;;;;;;;18.80;57.20;;;;;;5052465;28;1087;-67
2022/04/13 06:21:32;;;;;;;;;;;18.70;57.10;;;;;;5053142;28;776;-67
2022/04/13 06:23:57;;;;;;;;;;;18.70;57.10;;;;;;5052693;28;803;-68
2022/04/13 06:26:23;;;;;;;;;;;18.70;57.10;;;;;;5052497;28;1283;-67
2022/04/13 06:28:48;;;;;;;;;;;18.70;57.10;;;;;;5052517;28;1898;-68
2022/04/13 06:31:14;;;;;;;;;;;18.80;57.10;;;;;;5052737;28;931;-68
2022/04/13 06:33:39;;;;;;;;;;;18.80;57.10;;;;;;5034870;28;879;-68
2022/04/13 06:36:08;;;;;;;;;;;18.80;57.10;;;;;;5052151;28;1384;-69
2022/04/13 06:38:34;;;;;;;;;;;18.80;57.00;;;;;;5052497;28;1089;-67
2022/04/13 06:40:59;;;;;;;;;;;18.80;57.00;;;;;;5052591;28;870;-67
2022/04/13 06:43:25;;;;;;;;;;;18.80;57.00;;;;;;5048541;28;1501;-68
2022/04/13 06:45:52;;;;;;;;;;;18.80;57.60;;;;;;5051897;28;1399;-65
2022/04/13 06:48:17;;;;;;;;;;;18.80;57.00;;;;;;5052262;28;878;-65
2022/04/13 06:50:42;;;;;;;;;;;18.80;57.00;;;;;;5052542;28;1959;-65
2022/04/13 06:53:08;;;;;;;;;;;18.80;57.00;;;;;;5056266;28;903;-66
2022/04/13 06:55:34;;;;;;;;;;;18.80;57.00;;;;;;5056082;28;1227;-70
2022/04/13 06:58:00;;;;;;;;;;;18.90;56.90;;;;;;5056282;28;843;-69
2022/04/13 07:00:25;;;;;;;;;;;18.90;56.80;;;;;;5055998;28;816;-70
2022/04/13 07:02:57;;;;;;;;;;;19.00;56.70;;;;;;5056066;28;825;-70
2022/04/13 07:05:23;;;;;;;;;;;19.10;56.60;;;;;;5055947;28;1233;-70
2022/04/13 07:07:48;;;;;;;;;;;19.20;56.50;;;;;;5051608;23;2097;-70
2022/04/13 07:10:14;;;;;;;;;;;19.30;56.30;;;;;;5056069;28;1982;-70
2022/04/13 07:12:39;;;;;;;;;;;19.40;56.70;;;;;;5055901;28;886;-70
2022/04/13 07:15:05;;;;;;;;;;;19.50;55.90;;;;;;5038173;28;813;-70
2022/04/13 07:17:30;;;;;;;;;;;19.60;55.70;;;;;;5071058;28;1197;-70
2022/04/13 07:19:56;;;;;;;;;;;19.70;55.50;;;;;;5057879;28;899;-70
2022/04/13 07:22:21;;;;;;;;;;;19.80;55.30;;;;;;5057967;28;685;-72
2022/04/13 07:24:47;;;;;;;;;;;19.90;55.10;;;;;;5075669;28;719;-70
2022/04/13 07:27:12;;;;;;;;;;;19.90;54.90;;;;;;5075436;28;1235;-69
2022/04/13 07:29:38;;;;;;;;;;;20.00;54.70;;;;;;5095044;28;1947;-68
2022/04/13 07:32:04;;;;;;;;;;;20.00;54.60;;;;;;5095605;28;881;-69
2022/04/13 07:34:30;;;;;;;;;;;20.10;54.50;;;;;;5096033;28;953;-70
2022/04/13 07:36:55;;;;;;;;;;;20.10;54.50;;;;;;5095586;28;1274;-70
2022/04/13 07:39:21;;;;;;;;;;;20.10;54.40;;;;;;5077718;28;890;-69
2022/04/13 07:41:47;;;;;;;;;;;20.10;54.30;;;;;;5095557;28;855;-70
2022/04/13 07:44:12;;;;;;;;;;;20.20;54.30;;;;;;5095671;28;822;-70
2022/04/13 07:46:38;;;;;;;;;;;20.20;54.30;;;;;;5095036;28;1296;-69
2022/04/13 07:49:06;;;;;;;;;;;20.20;54.30;;;;;;5077255;28;1897;-69
2022/04/13 07:51:31;;;;;;;;;;;20.20;54.30;;;;;;5095436;28;826;-68
2022/04/13 07:53:57;;;;;;;;;;;20.20;54.30;;;;;;5095421;28;1004;-69
2022/04/13 07:56:22;;;;;;;;;;;20.20;54.20;;;;;;5095047;28;1210;-68
2022/04/13 07:58:48;;;;;;;;;;;20.20;54.90;;;;;;5095137;28;878;-69
2022/04/13 08:01:14;;;;;;;;;;;20.20;54.20;;;;;;5095152;28;894;-70
2022/04/13 08:03:40;;;;;;;;;;;20.20;54.20;;;;;;5094557;28;881;-68
2022/04/13 08:06:05;;;;;;;;;;;20.20;54.30;;;;;;5094744;28;1294;-68
2022/04/13 08:08:31;;;;;;;;;;;20.20;54.30;;;;;;5095276;28;867;-69
2022/04/13 08:10:56;;;;;;;;;;;20.20;54.30;;;;;;5095032;28;1906;-69
2022/04/13 08:13:21;;;;;;;;;;;20.10;54.30;;;;;;5095078;28;1097;-69
2022/04/13 08:15:47;;;;;;;;;;;20.10;54.40;;;;;;5094578;28;1291;-69
2022/04/13 08:18:12;;;;;;;;;;;20.20;54.40;;;;;;5094860;28;831;-69
2022/04/13 08:20:38;;;;;;;;;;;20.10;54.50;;;;;;5094891;28;981;-70
2022/04/13 08:23:03;;;;;;;;;;;20.10;54.50;;;;;;5095066;28;849;-69
2022/04/13 08:25:29;;;;;;;;;;;20.10;54.50;;;;;;5079416;28;1146;-70
2022/04/13 08:27:54;;;;;;;;;;;20.10;54.50;;;;;;5094604;28;1173;-70
2022/04/13 08:30:20;;;;;;;;;;;20.10;54.60;;;;;;5094567;28;1906;-70
2022/04/13 08:32:45;;;;;;;;;;;20.10;54.60;;;;;;5093414;28;1181;-70
2022/04/13 08:35:11;;;;;;;;;;;20.10;54.70;;;;;;5075970;28;1452;-69
2022/04/13 08:37:37;;;;;;;;;;;20.10;54.70;;;;;;5094287;28;1213;-70
2022/04/13 08:40:03;;;;;;;;;;;20.00;54.70;;;;;;5093653;28;783;-69
2022/04/13 08:43:07;;;;;;;;;;;20.00;54.70;;;;;;5094329;28;1080;-69
2022/04/13 08:45:38;;;;;;;;;;;20.00;54.70;;;;;;5031856;28;1359;-69
2022/04/13 08:48:04;;;;;;;;;;;20.00;54.80;;;;;;5015408;28;872;-69
2022/04/13 08:50:30;;;;;;;;;;;20.00;54.80;;;;;;5063028;28;1902;-69
2022/04/13 08:52:57;;;;;;;;;;;20.00;54.90;;;;;;5092922;28;1056;-69
2022/04/13 08:55:23;;;;;;;;;;;20.00;54.90;;;;;;5094038;28;842;-69
2022/04/13 08:57:49;;;;;;;;;;;19.90;54.90;;;;;;5093669;28;1175;-70
2022/04/13 09:00:18;;;;;;;;;;;19.90;54.90;;;;;;5092927;28;743;-69
2022/04/13 09:02:50;;;;;;;;;;;19.90;55.00;;;;;;5092730;28;1004;-69
2022/04/13 09:05:16;;;;;;;;;;;19.90;55.00;;;;;;5094235;28;839;-69
2022/04/13 09:07:41;;;;;;;;;;;19.90;55.10;;;;;;5092291;28;1232;-69
2022/04/13 09:10:10;;;;;;;;;;;19.90;55.10;;;;;;5092471;28;1910;-70
2022/04/13 09:12:38;;;;;;;;;;;19.90;55.20;;;;;;5092729;28;802;-70
2022/04/13 09:15:04;;;;;;;;;;;19.90;55.20;;;;;;5092376;28;1044;-69
2022/04/13 09:17:30;;;;;;;;;;;19.80;55.20;;;;;;5091807;28;1377;-69
2022/04/13 09:19:58;;;;;;;;;;;19.80;55.40;;;;;;5092449;28;726;-69
2022/04/13 09:22:24;;;;;;;;;;;19.80;55.40;;;;;;5092333;28;1077;-69
2022/04/13 09:24:50;;;;;;;;;;;19.80;55.50;;;;;;5093381;28;1129;-69
2022/04/13 09:27:15;;;;;;;;;;;19.80;55.50;;;;;;5075217;28;1286;-69
2022/04/13 09:29:40;;;;;;;;;;;19.70;55.50;;;;;;5075168;28;1890;-69
2022/04/13 09:32:07;;;;;;;;;;;19.70;55.60;;;;;;5075242;28;997;-69
2022/04/13 09:34:32;;;;;;;;;;;19.70;55.60;;;;;;5093698;28;915;-69
2022/04/13 09:36:57;;;;;;;;;;;19.70;56.30;;;;;;5093099;28;1319;-69
2022/04/13 09:39:23;;;;;;;;;;;19.70;55.80;;;;;;5093113;28;629;-69
2022/04/13 09:41:48;;;;;;;;;;;19.60;55.70;;;;;;5093444;28;843;-69
2022/04/13 09:44:14;;;;;;;;;;;19.60;55.80;;;;;;5075220;28;1625;-69
2022/04/13 09:46:39;;;;;;;;;;;19.60;55.90;;;;;;5074890;28;1330;-69
2022/04/13 09:49:09;;;;;;;;;;;19.60;55.90;;;;;;5074969;28;1949;-70
2022/04/13 09:51:35;;;;;;;;;;;19.60;56.00;;;;;;5075135;28;862;-68
2022/04/13 09:54:03;;;;;;;;;;;19.50;56.00;;;;;;5093260;28;1000;-68
2022/04/13 09:56:29;;;;;;;;;;;19.50;56.10;;;;;;5074874;28;1288;-68
2022/04/13 09:58:54;;;;;;;;;;;19.50;56.10;;;;;;5093221;28;981;-68
2022/04/13 10:01:20;;;;;;;;;;;19.50;56.10;;;;;;5092971;28;989;-68
2022/04/13 10:03:58;;;;;;;;;;;19.40;56.10;;;;;;5075068;28;843;-68
2022/04/13 10:06:27;;;;;;;;;;;19.40;56.10;;;;;;5092584;28;1212;-69
2022/04/13 10:09:02;;;;;;;;;;;19.50;56.30;;;;;;5093225;28;1969;-68
2022/04/13 10:11:27;;;;;;;;;;;19.50;56.30;;;;;;5075490;28;872;-70
2022/04/13 10:13:53;;;;;;;;;;;19.40;56.20;;;;;;5092999;28;918;-70
2022/04/13 10:16:18;;;;;;;;;;;19.40;55.80;;;;;;5092564;28;1282;-70
2022/04/13 10:18:57;;;;;;;;;;;19.30;54.90;;;;;;5092544;28;831;-70
2022/04/13 10:21:42;;;;;;;;;;;19.30;52.90;;;;;;5092886;28;815;-71
2022/04/13 10:24:22;;;;;;;;;;;19.30;51.60;;;;;;5074919;28;851;-70
2022/04/13 10:26:58;;;;;;;;;;;19.30;50.30;;;;;;5090319;28;1365;-70
2022/04/13 10:29:26;;;;;;;;;;;19.20;49.40;;;;;;5096626;28;1894;-70
2022/04/13 10:32:00;;;;;;;;;;;19.20;48.80;;;;;;5079080;28;949;-70
2022/04/13 10:34:30;;;;;;;;;;;19.10;49.40;;;;;;5078791;28;1332;-70
2022/04/13 10:36:55;;;;;;;;;;;19.10;49.20;;;;;;5083477;28;1231;-69
2022/04/13 10:39:21;;;;;;;;;;;19.10;48.10;;;;;;5096972;28;882;-70
2022/04/13 10:41:48;;;;;;;;;;;19.10;47.60;;;;;;5096553;28;898;-70
2022/04/13 10:44:14;;;;;;;;;;;19.10;47.70;;;;;;5095519;28;828;-70
2022/04/13 10:46:39;;;;;;;;;;;19.10;47.80;;;;;;5095243;28;1211;-70
2022/04/13 10:49:07;;;;;;;;;;;19.10;47.80;;;;;;5095128;28;1898;-70
2022/04/13 10:51:32;;;;;;;;;;;19.10;48.00;;;;;;5095617;28;906;-69
2022/04/13 10:53:59;;;;;;;;;;;19.10;47.90;;;;;;5095340;28;1012;-69
2022/04/13 10:56:26;;;;;;;;;;;19.10;47.50;;;;;;5070436;28;2172;-69
2022/04/13 10:59:07;;;;;;;;;;;19.00;47.00;;;;;;5078009;28;1091;-69
2022/04/13 11:01:43;;;;;;;;;;;19.10;47.70;;;;;;5078263;28;803;-68
2022/04/13 11:04:09;;;;;;;;;;;19.00;46.80;;;;;;5078035;28;909;-68
2022/04/13 11:06:35;;;;;;;;;;;19.00;47.40;;;;;;5095805;28;1313;-69
2022/04/13 11:09:02;;;;;;;;;;;19.10;46.60;;;;;;5078135;28;1967;-68
2022/04/13 11:11:28;;;;;;;;;;;19.00;46.90;;;;;;5077981;28;1096;-68
2022/04/13 11:13:53;;;;;;;;;;;19.00;47.80;;;;;;5077955;28;925;-68
2022/04/13 11:16:19;;;;;;;;;;;19.00;47.30;;;;;;5095547;28;1305;-66
2022/04/13 11:19:04;;;;;;;;;;;19.00;47.30;;;;;;5096070;28;878;-67
2022/04/13 11:21:29;;;;;;;;;;;19.00;47.20;;;;;;5072653;28;1472;-67
2022/04/13 11:23:55;;;;;;;;;;;19.00;48.00;;;;;;5088849;28;2128;-67
2022/04/13 11:26:27;;;;;;;;;;;19.00;47.30;;;;;;5074793;28;1353;-68
2022/04/13 11:29:11;;;;;;;;;;;19.00;47.10;;;;;;5077783;28;1091;-70
2022/04/13 11:31:59;;;;;;;;;;;19.00;46.20;;;;;;5092399;28;2038;-71
2022/04/13 11:34:28;;;;;;;;;;;19.00;45.80;;;;;;5093804;28;1320;-69
2022/04/13 11:36:57;;;;;;;;;;;19.00;46.40;;;;;;5081289;28;1229;-70
2022/04/13 11:39:41;;;;;;;;;;;19.00;46.00;;;;;;5090031;28;2059;-70
2022/04/13 11:42:13;;;;;;;;;;;19.00;46.10;;;;;;5090714;28;1094;-69
2022/04/13 11:44:48;;;;;;;;;;;19.00;45.80;;;;;;5057509;28;1025;-69
2022/04/13 11:47:14;;;;;;;;;;;19.00;45.60;;;;;;5056682;28;1449;-70
2022/04/13 11:49:56;;;;;;;;;;;19.00;46.00;;;;;;5057014;28;1891;-70
2022/04/13 11:52:41;;;;;;;;;;;19.00;45.30;;;;;;5075006;28;814;-71
2022/04/13 11:55:19;;;;;;;;;;;19.00;45.50;;;;;;5074884;28;870;-70
2022/04/13 11:57:51;;;;;;;;;;;19.00;45.00;;;;;;5056851;28;1200;-70
2022/04/13 12:00:35;;;;;;;;;;;19.00;44.90;;;;;;5074848;28;891;-68
2022/04/13 12:03:01;;;;;;;;;;;19.00;45.20;;;;;;5074442;28;1041;-69
2022/04/13 12:05:26;;;;;;;;;;;19.00;45.20;;;;;;5056941;28;1025;-68
2022/04/13 12:07:51;;;;;;;;;;;19.00;45.90;;;;;;5056440;28;1612;-70
2022/04/13 12:10:17;;;;;;;;;;;19.00;45.60;;;;;;5056601;28;1955;-69
2022/04/13 12:12:49;;;;;;;;;;;19.00;45.20;;;;;;5079246;28;985;-69
2022/04/13 12:15:14;;;;;;;;;;;19.00;45.30;;;;;;5093394;28;1037;-69
2022/04/13 12:17:40;;;;;;;;;;;19.00;45.20;;;;;;5093574;28;1256;-69
2022/04/13 12:20:05;;;;;;;;;;;19.00;44.70;;;;;;5093691;28;1080;-68
2022/04/13 12:22:33;;;;;;;;;;;19.00;44.50;;;;;;5094689;28;902;-69
2022/04/13 12:25:01;;;;;;;;;;;19.00;44.90;;;;;;5076397;28;1189;-69
2022/04/13 12:27:27;;;;;;;;;;;19.00;44.50;;;;;;5094309;28;1274;-69
2022/04/13 12:30:07;;;;;;;;;;;19.00;44.70;;;;;;5085330;28;1898;-69
2022/04/13 12:32:33;;;;;;;;;;;19.00;44.70;;;;;;5076474;28;1046;-68
2022/04/13 12:34:58;;;;;;;;;;;19.00;44.80;;;;;;5074277;28;851;-68
2022/04/13 12:37:24;;;;;;;;;;;19.00;44.30;;;;;;5076247;28;1379;-69
2022/04/13 12:39:49;;;;;;;;;;;19.00;44.40;;;;;;5094406;28;838;-68
2022/04/13 12:42:21;;;;;;;;;;;19.00;44.20;;;;;;5094470;28;855;-69
2022/04/13 12:44:46;;;;;;;;;;;19.10;44.10;;;;;;5094281;28;1005;-68
2022/04/13 12:47:12;;;;;;;;;;;19.10;44.60;;;;;;5094135;28;1205;-67
2022/04/13 12:49:37;;;;;;;;;;;19.10;44.50;;;;;;5093824;28;1947;-67
2022/04/13 12:52:06;;;;;;;;;;;19.10;44.60;;;;;;5094139;28;1107;-69
2022/04/13 12:54:32;;;;;;;;;;;19.10;44.80;;;;;;5075799;28;902;-67
2022/04/13 12:57:00;;;;;;;;;;;19.00;44.50;;;;;;5075693;28;1210;-67
2022/04/13 12:59:26;;;;;;;;;;;19.00;44.70;;;;;;5094226;28;854;-68
2022/04/13 13:01:52;;;;;;;;;;;19.00;44.40;;;;;;5092553;28;1625;-68
2022/04/13 13:04:19;;;;;;;;;;;19.00;43.80;;;;;;5075506;28;1154;-71
2022/04/13 13:06:55;;;;;;;;;;;19.00;43.80;;;;;;5073226;22;3505;-66
2022/04/13 13:09:22;;;;;;;;;;;19.00;43.90;;;;;;5047294;28;1910;-66
2022/04/13 13:11:54;;;;;;;;;;;19.00;44.10;;;;;;5053413;28;1142;-66
2022/04/13 13:14:20;;;;;;;;;;;19.10;44.20;;;;;;5035729;28;1064;-67
2022/04/13 13:16:46;;;;;;;;;;;19.00;44.30;;;;;;5053287;28;1345;-66
2022/04/13 13:19:11;;;;;;;;;;;19.10;44.70;;;;;;5053670;28;887;-66
2022/04/13 13:21:37;;;;;;;;;;;19.00;44.60;;;;;;5053353;28;1022;-66
2022/04/13 13:24:03;;;;;;;;;;;19.10;44.30;;;;;;5037731;28;1319;-67
2022/04/13 13:26:28;;;;;;;;;;;19.10;44.10;;;;;;5061703;28;1231;-68
2022/04/13 13:28:54;;;;;;;;;;;19.10;44.60;;;;;;5064579;28;1286;-67
2022/04/13 13:31:24;;;;;;;;;;;19.10;44.40;;;;;;5061733;28;1953;-67
2022/04/13 13:33:55;;;;;;;;;;;19.10;44.90;;;;;;5060315;28;1275;-66
2022/04/13 13:36:20;;;;;;;;;;;19.10;44.80;;;;;;5063373;28;1303;-66
2022/04/13 13:38:49;;;;;;;;;;;19.00;45.40;;;;;;5061583;28;1195;-67
2022/04/13 13:41:14;;;;;;;;;;;19.10;45.10;;;;;;5062440;28;1270;-65
2022/04/13 13:43:41;;;;;;;;;;;19.00;45.20;;;;;;5045818;28;1200;-67
2022/04/13 13:46:13;;;;;;;;;;;19.00;45.10;;;;;;5035261;28;894;-67
2022/04/13 13:48:39;;;;;;;;;;;19.00;44.80;;;;;;5056496;28;1761;-68
2022/04/13 13:51:04;;;;;;;;;;;19.00;45.00;;;;;;5057638;28;2537;-67
2022/04/13 13:53:30;;;;;;;;;;;19.00;44.70;;;;;;5060775;28;1263;-67
2022/04/13 13:55:55;;;;;;;;;;;19.00;45.10;;;;;;5060355;28;1334;-67
2022/04/13 13:58:21;;;;;;;;;;;19.00;45.10;;;;;;5046197;28;1279;-66
2022/04/13 14:00:48;;;;;;;;;;;19.00;44.80;;;;;;5045747;28;1239;-68
2022/04/13 14:03:15;;;;;;;;;;;19.00;45.10;;;;;;5045454;28;1199;-67
2022/04/13 14:05:41;;;;;;;;;;;19.00;46.50;;;;;;5061616;28;1239;-68
2022/04/13 14:08:07;;;;;;;;;;;19.00;47.70;;;;;;5056275;28;1333;-68
2022/04/13 14:10:39;;;;;;;;;;;18.90;48.10;;;;;;5072501;28;1971;-67
2022/04/13 14:13:05;;;;;;;;;;;18.90;48.50;;;;;;5056751;28;842;-68
2022/04/13 14:15:32;;;;;;;;;;;18.90;48.60;;;;;;5072789;28;787;-68
2022/04/13 14:17:58;;;;;;;;;;;18.80;48.70;;;;;;5072826;28;1302;-68
2022/04/13 14:20:23;;;;;;;;;;;18.80;48.80;;;;;;5073712;28;910;-68
2022/04/13 14:22:51;;;;;;;;;;;18.80;49.00;;;;;;5073600;28;1056;-68
2022/04/13 14:25:17;;;;;;;;;;;18.80;49.30;;;;;;5068527;28;1095;-68
2022/04/13 14:27:42;;;;;;;;;;;18.70;49.30;;;;;;5034612;28;1292;-68
2022/04/13 14:30:12;;;;;;;;;;;18.70;50.10;;;;;;5052409;28;1905;-68
2022/04/13 14:32:37;;;;;;;;;;;18.70;49.70;;;;;;5052613;28;833;-68